Аэропорт: Игнатьево. Благовещенск

ICAO: UHBB

METAR:
2018/07/22 20:00
UHBB 222000Z 21002MPS CAVOK 18/16 Q1003 R36/090060 NOSIG RMK QFE735/0980
METAR:
2018/07/22 21:00
TAF UHBB 222000Z 2221/2321 26003MPS 9999 SCT030CB 
      TEMPO 2300/2309 28006MPS 
      BECMG 2310/2312 33003MPS